createdAt,value
2018-09-14T00:00:56.354Z,99.99
2018-09-14T00:01:56.427Z,99.99
2018-09-14T00:02:56.370Z,99.99
2018-09-14T00:03:56.337Z,99.99
2018-09-14T00:04:56.415Z,99.99
2018-09-14T00:05:56.384Z,99.99
2018-09-14T00:06:56.364Z,99.99
2018-09-14T00:07:56.364Z,99.99
2018-09-14T00:08:56.373Z,99.99
2018-09-14T00:09:56.416Z,99.99
2018-09-14T00:10:56.528Z,99.99
2018-09-14T00:11:56.521Z,99.99
2018-09-14T00:12:56.566Z,99.99
2018-09-14T00:13:56.508Z,99.99
2018-09-14T00:14:56.391Z,99.99
2018-09-14T00:15:56.391Z,99.99
2018-09-14T00:16:56.397Z,99.99
2018-09-14T00:17:56.408Z,99.99
2018-09-14T00:18:56.540Z,99.99
2018-09-14T00:19:56.419Z,99.99
2018-09-14T00:20:56.385Z,99.99
2018-09-14T00:21:56.392Z,99.99
2018-09-14T00:22:56.394Z,99.99
2018-09-14T00:23:56.479Z,99.99
2018-09-14T00:24:56.530Z,99.99
2018-09-14T00:25:56.538Z,99.99
2018-09-14T00:26:56.418Z,99.99
2018-09-14T00:27:56.462Z,99.99
2018-09-14T00:28:56.416Z,99.99
2018-09-14T00:29:56.552Z,99.99
2018-09-14T00:30:56.440Z,99.99
2018-09-14T00:31:56.428Z,99.99
2018-09-14T00:32:56.419Z,99.99
2018-09-14T00:33:56.407Z,99.99
2018-09-14T00:34:56.403Z,99.99
2018-09-14T00:35:56.420Z,99.99
2018-09-14T00:36:56.421Z,99.99
2018-09-14T00:37:56.419Z,99.99
2018-09-14T00:38:56.441Z,99.99
2018-09-14T00:39:56.412Z,99.99
2018-09-14T00:40:56.445Z,99.99
2018-09-14T00:41:56.453Z,99.99
2018-09-14T00:42:56.420Z,99.99
2018-09-14T00:47:25.627Z,99.99
2018-09-14T00:48:25.601Z,99.99
2018-09-14T00:57:16.796Z,99.99
2018-09-14T00:58:16.774Z,99.99
2018-09-14T00:59:16.672Z,99.99
2018-09-14T01:00:16.792Z,99.99
2018-09-14T01:01:16.660Z,99.99
2018-09-14T01:02:16.830Z,99.99
2018-09-14T01:03:16.651Z,99.99
2018-09-14T01:04:16.716Z,99.99
2018-09-14T01:05:16.674Z,99.99
2018-09-14T01:06:16.778Z,99.99
2018-09-14T01:07:16.684Z,99.99
2018-09-14T01:08:16.666Z,99.99
2018-09-14T01:09:16.813Z,99.99
2018-09-14T01:10:16.693Z,99.99
2018-09-14T01:11:16.673Z,99.99
2018-09-14T01:12:16.677Z,99.99
2018-09-14T01:13:16.759Z,99.99
2018-09-14T01:14:16.702Z,99.99
2018-09-14T01:15:16.668Z,99.99
2018-09-14T01:16:16.683Z,99.99
2018-09-14T01:17:16.771Z,99.99
2018-09-14T01:18:16.745Z,99.99
2018-09-14T01:24:57.192Z,99.99
2018-09-14T01:25:57.154Z,99.99
2018-09-14T01:26:57.156Z,99.99
2018-09-14T01:27:57.201Z,99.99
2018-09-14T01:28:57.169Z,99.99
2018-09-14T01:29:57.956Z,99.99
2018-09-14T01:30:57.147Z,99.99
2018-09-14T01:31:57.182Z,99.99
2018-09-14T01:32:57.164Z,99.99
2018-09-14T01:33:57.163Z,99.99
2018-09-14T01:34:57.200Z,99.99
2018-09-14T01:35:57.153Z,99.99
2018-09-14T01:36:57.218Z,99.99
2018-09-14T01:37:57.157Z,99.99
2018-09-14T01:38:57.198Z,99.99
2018-09-14T01:39:57.166Z,99.99
2018-09-14T01:40:57.182Z,99.99
2018-09-14T01:43:57.343Z,99.99
2018-09-14T01:44:57.198Z,99.99
2018-09-14T01:45:57.186Z,99.99
2018-09-14T01:46:57.190Z,99.99
2018-09-14T01:47:57.191Z,99.99
2018-09-14T01:48:57.193Z,99.99
2018-09-14T01:49:57.173Z,99.99
2018-09-14T01:56:35.057Z,99.99
2018-09-14T01:57:35.184Z,99.99
2018-09-14T01:58:35.102Z,99.99
2018-09-14T01:59:35.020Z,99.99
2018-09-14T02:00:35.045Z,99.99
2018-09-14T02:01:35.064Z,99.99
2018-09-14T02:08:13.035Z,99.99
2018-09-14T02:09:12.993Z,99.99
2018-09-14T02:10:13.012Z,99.99
2018-09-14T02:11:13.008Z,99.99
2018-09-14T02:12:14.416Z,99.99
2018-09-14T02:13:13.020Z,99.99
2018-09-14T02:14:13.032Z,99.99
2018-09-14T02:15:13.013Z,99.99
2018-09-14T02:16:13.716Z,99.99
2018-09-14T02:17:13.013Z,99.99
2018-09-14T02:18:13.163Z,99.99
2018-09-14T02:19:13.032Z,99.99
2018-09-14T02:20:13.007Z,99.99
2018-09-14T02:21:13.038Z,99.99
2018-09-14T02:22:13.080Z,99.99
2018-09-14T02:23:13.194Z,99.99
2018-09-14T02:24:13.027Z,99.99
2018-09-14T02:25:13.024Z,99.99
2018-09-14T02:26:13.164Z,99.99
2018-09-14T02:27:13.018Z,99.99
2018-09-14T02:28:13.028Z,99.99
2018-09-14T02:29:13.018Z,99.99
2018-09-14T02:30:13.036Z,99.99
2018-09-14T02:31:13.082Z,99.99
2018-09-14T02:32:13.035Z,99.99
2018-09-14T02:33:13.022Z,99.99
2018-09-14T02:34:13.031Z,99.99
2018-09-14T02:35:13.054Z,99.99
2018-09-14T02:36:13.095Z,99.99
2018-09-14T02:37:13.053Z,99.99
2018-09-14T02:38:13.079Z,99.99
2018-09-14T02:39:13.052Z,99.99
2018-09-14T02:40:13.060Z,99.99
2018-09-14T02:41:13.079Z,99.99
2018-09-14T02:42:13.054Z,99.99
2018-09-14T02:43:13.039Z,99.99
2018-09-14T02:44:13.083Z,99.99
2018-09-14T02:45:13.085Z,99.99
2018-09-14T02:46:13.168Z,99.99
2018-09-14T02:47:13.036Z,99.99
2018-09-14T02:48:13.046Z,99.99
2018-09-14T02:49:13.061Z,99.99
2018-09-14T02:50:13.060Z,99.99
2018-09-14T02:51:13.088Z,99.99
2018-09-14T02:52:13.078Z,99.99
2018-09-14T02:53:13.070Z,99.99
2018-09-14T02:54:13.117Z,99.99
2018-09-14T02:55:13.057Z,99.99
2018-09-14T02:56:13.090Z,99.99
2018-09-14T02:57:13.083Z,99.99
2018-09-14T02:58:13.247Z,99.99
2018-09-14T02:59:13.087Z,99.99
2018-09-14T03:00:13.168Z,99.99
2018-09-14T03:01:13.175Z,99.99
2018-09-14T03:02:13.073Z,99.99
2018-09-14T03:03:13.064Z,99.99
2018-09-14T03:04:13.108Z,99.99
2018-09-14T03:05:13.102Z,99.99
2018-09-14T03:06:13.096Z,99.99
2018-09-14T03:07:17.223Z,99.99
2018-09-14T03:08:13.079Z,99.99
2018-09-14T03:09:13.074Z,99.99
2018-09-14T03:10:14.011Z,99.99
2018-09-14T03:11:13.103Z,99.99
2018-09-14T03:12:13.108Z,99.99
2018-09-14T03:13:13.077Z,99.99
2018-09-14T03:14:13.115Z,99.99
2018-09-14T03:15:13.110Z,99.99
2018-09-14T03:16:13.121Z,99.99
2018-09-14T03:17:13.139Z,99.99
2018-09-14T03:18:13.103Z,99.99
2018-09-14T03:19:13.134Z,99.99
2018-09-14T03:20:13.109Z,99.99
2018-09-14T03:21:13.095Z,99.99
2018-09-14T03:22:13.150Z,99.99
2018-09-14T03:23:13.094Z,99.99
2018-09-14T03:24:13.146Z,99.99
2018-09-14T03:25:13.155Z,99.99
2018-09-14T03:26:13.127Z,99.99
2018-09-14T03:27:13.158Z,99.99
2018-09-14T03:28:13.277Z,99.99
2018-09-14T03:29:13.144Z,99.99
2018-09-14T03:30:13.145Z,99.99
2018-09-14T03:31:13.138Z,99.99
2018-09-14T03:32:13.229Z,99.99
2018-09-14T03:33:13.138Z,99.99
2018-09-14T03:34:13.135Z,99.99
2018-09-14T03:35:13.189Z,99.99
2018-09-14T03:36:13.148Z,99.99
2018-09-14T03:37:13.428Z,99.99
2018-09-14T03:38:13.142Z,99.99
2018-09-14T03:39:13.266Z,99.99
2018-09-14T03:40:13.156Z,99.99
2018-09-14T03:41:13.148Z,99.99
2018-09-14T03:42:13.129Z,99.99
2018-09-14T03:43:13.312Z,99.99
2018-09-14T03:44:13.323Z,99.99
2018-09-14T03:45:13.178Z,99.99
2018-09-14T03:46:13.316Z,99.99
2018-09-14T03:47:13.147Z,99.99
2018-09-14T03:48:13.165Z,99.99
2018-09-14T03:49:13.170Z,99.99
2018-09-14T03:50:13.188Z,99.99
2018-09-14T03:51:13.162Z,99.99
2018-09-14T03:52:13.193Z,99.99
2018-09-14T03:53:13.156Z,99.99
2018-09-14T03:54:13.191Z,99.99
2018-09-14T03:55:13.578Z,99.99
2018-09-14T03:56:13.329Z,99.99
2018-09-14T03:57:13.294Z,99.99
2018-09-14T03:58:13.191Z,99.99
2018-09-14T03:59:13.215Z,99.99
2018-09-14T04:00:13.230Z,99.99
2018-09-14T04:01:13.182Z,99.99
2018-09-14T04:02:13.179Z,99.99
2018-09-14T04:03:13.191Z,99.99
2018-09-14T04:07:43.049Z,99.99
2018-09-14T04:08:42.971Z,99.99
2018-09-14T04:09:42.967Z,99.99
2018-09-14T04:10:42.982Z,99.99
2018-09-14T04:11:42.976Z,99.99
2018-09-14T04:12:42.978Z,99.99
2018-09-14T04:13:43.042Z,99.99
2018-09-14T04:14:42.965Z,99.99
2018-09-14T04:19:12.624Z,99.99
2018-09-14T04:20:12.587Z,99.99
2018-09-14T04:21:12.601Z,99.99
2018-09-14T04:22:12.558Z,99.99
2018-09-14T04:23:12.945Z,99.99
2018-09-14T04:24:12.604Z,99.99
2018-09-14T04:25:12.584Z,99.99
2018-09-14T04:26:12.569Z,99.99
2018-09-14T04:27:12.636Z,99.99
2018-09-14T04:28:12.585Z,99.99
2018-09-14T04:29:12.572Z,99.99
2018-09-14T04:30:12.609Z,99.99
2018-09-14T04:31:12.582Z,99.99
2018-09-14T04:32:12.593Z,99.99
2018-09-14T04:33:12.601Z,99.99
2018-09-14T04:34:12.602Z,99.99
2018-09-14T04:35:12.608Z,99.99
2018-09-14T04:36:12.626Z,99.99
2018-09-14T04:37:12.587Z,99.99
2018-09-14T04:38:12.653Z,99.99
2018-09-14T04:39:12.651Z,99.99
2018-09-14T04:40:12.788Z,99.99
2018-09-14T04:41:12.602Z,99.99
2018-09-14T04:42:12.629Z,99.99
2018-09-14T04:43:12.614Z,99.99
2018-09-14T04:44:12.599Z,99.99
2018-09-14T04:45:12.619Z,99.99
2018-09-14T04:46:12.692Z,99.99
2018-09-14T04:47:12.627Z,99.99
2018-09-14T04:48:12.655Z,99.99
2018-09-14T04:49:12.615Z,99.99
2018-09-14T04:50:12.619Z,99.99
2018-09-14T04:51:12.712Z,99.99
2018-09-14T04:52:12.627Z,99.99
2018-09-14T04:53:12.714Z,99.99
2018-09-14T04:54:12.775Z,99.99
2018-09-14T04:55:12.610Z,99.99
2018-09-14T04:56:12.647Z,99.99
2018-09-14T04:57:12.693Z,99.99
2018-09-14T04:58:12.641Z,99.99
2018-09-14T04:59:12.667Z,99.99
2018-09-14T05:00:12.622Z,99.99
2018-09-14T05:01:12.628Z,99.99
2018-09-14T05:02:12.627Z,99.99
2018-09-14T05:03:12.835Z,99.99
2018-09-14T05:04:12.642Z,99.99
2018-09-14T05:05:12.644Z,99.99
2018-09-14T05:06:12.638Z,99.99
2018-09-14T05:07:12.632Z,99.99
2018-09-14T05:08:12.639Z,99.99
2018-09-14T05:09:12.634Z,99.99
2018-09-14T05:10:12.654Z,99.99
2018-09-14T05:11:12.661Z,99.99
2018-09-14T05:12:12.665Z,99.99
2018-09-14T05:13:12.681Z,99.99
2018-09-14T05:14:12.724Z,99.99
2018-09-14T05:15:12.641Z,99.99
2018-09-14T05:16:12.651Z,99.99
2018-09-14T05:17:12.662Z,99.99
2018-09-14T05:18:12.752Z,99.99
2018-09-14T05:19:12.663Z,99.99
2018-09-14T05:20:12.696Z,99.99
2018-09-14T05:21:12.682Z,99.99
2018-09-14T05:22:12.720Z,99.99
2018-09-14T05:23:12.659Z,99.99
2018-09-14T05:24:12.922Z,99.99
2018-09-14T05:25:12.818Z,99.99
2018-09-14T05:26:12.702Z,99.99
2018-09-14T05:27:12.684Z,99.99
2018-09-14T05:28:12.668Z,99.99
2018-09-14T05:29:12.697Z,99.99
2018-09-14T05:30:12.677Z,99.99
2018-09-14T05:31:12.703Z,99.99
2018-09-14T05:32:12.680Z,99.99
2018-09-14T05:33:12.689Z,99.99
2018-09-14T05:34:12.688Z,99.99
2018-09-14T05:35:12.695Z,99.99
2018-09-14T05:36:12.770Z,99.99
2018-09-14T05:37:12.703Z,99.99
2018-09-14T05:38:12.780Z,99.99
2018-09-14T05:39:12.689Z,99.99
2018-09-14T05:40:12.694Z,99.99
2018-09-14T05:41:12.677Z,99.99
2018-09-14T05:42:12.672Z,99.99
2018-09-14T05:43:12.692Z,99.99
2018-09-14T05:44:12.727Z,99.99
2018-09-14T05:45:12.724Z,99.99
2018-09-14T05:46:12.715Z,99.99
2018-09-14T05:47:12.736Z,99.99
2018-09-14T05:48:12.716Z,99.99
2018-09-14T05:49:12.741Z,99.99
2018-09-14T05:50:12.777Z,99.99
2018-09-14T05:51:12.711Z,99.99
2018-09-14T05:52:12.740Z,99.99
2018-09-14T05:53:12.713Z,99.99
2018-09-14T05:54:12.717Z,99.99
2018-09-14T05:55:12.723Z,99.99
2018-09-14T05:56:12.737Z,99.99
2018-09-14T05:57:12.742Z,99.99
2018-09-14T05:58:12.761Z,99.99
2018-09-14T05:59:12.756Z,99.99
2018-09-14T06:00:12.722Z,99.99
2018-09-14T06:09:02.987Z,99.99
2018-09-14T06:10:02.800Z,99.99
2018-09-14T06:11:02.814Z,99.99
2018-09-14T06:12:02.847Z,99.99
2018-09-14T06:13:02.824Z,99.99
2018-09-14T06:14:03.558Z,99.99
2018-09-14T06:15:02.764Z,99.99
2018-09-14T06:16:02.793Z,99.99
2018-09-14T06:17:02.839Z,99.99
2018-09-14T06:18:02.800Z,99.99
2018-09-14T06:19:02.813Z,99.99
2018-09-14T06:20:02.772Z,99.99
2018-09-14T06:21:02.806Z,99.99
2018-09-14T06:22:02.797Z,99.99
2018-09-14T06:23:02.897Z,99.99
2018-09-14T06:24:02.793Z,99.99
2018-09-14T06:25:02.818Z,99.99
2018-09-14T06:26:02.819Z,99.99
2018-09-14T06:27:02.827Z,99.99
2018-09-14T06:28:02.811Z,99.99
2018-09-14T06:29:02.807Z,99.99
2018-09-14T06:30:02.814Z,99.99
2018-09-14T06:31:02.840Z,99.99
2018-09-14T06:32:02.816Z,99.99
2018-09-14T06:33:02.913Z,99.99
2018-09-14T06:34:02.806Z,99.99
2018-09-14T06:35:02.839Z,99.99
2018-09-14T06:36:02.828Z,99.99
2018-09-14T06:37:02.803Z,99.99
2018-09-14T06:38:02.885Z,99.99
2018-09-14T06:39:02.812Z,99.99
2018-09-14T06:40:02.828Z,99.99
2018-09-14T06:41:02.796Z,99.99
2018-09-14T06:42:02.830Z,99.99
2018-09-14T06:43:02.830Z,99.99
2018-09-14T06:44:02.842Z,99.99
2018-09-14T06:45:02.922Z,99.99
2018-09-14T06:46:02.870Z,99.99
2018-09-14T06:47:02.835Z,99.99
2018-09-14T06:48:03.022Z,99.99
2018-09-14T06:49:02.838Z,99.99
2018-09-14T06:50:02.849Z,99.99
2018-09-14T06:56:42.515Z,99.99
2018-09-14T06:57:42.585Z,99.99
2018-09-14T06:58:42.471Z,99.99
2018-09-14T06:59:42.573Z,99.99
2018-09-14T07:00:42.513Z,99.99
2018-09-14T07:01:42.634Z,99.99
2018-09-14T07:02:42.491Z,99.99
2018-09-14T07:03:42.643Z,99.99
2018-09-14T07:04:42.484Z,99.99
2018-09-14T07:05:42.474Z,99.99
2018-09-14T07:06:42.478Z,99.99
2018-09-14T07:07:42.487Z,99.99
2018-09-14T07:08:42.464Z,99.99
2018-09-14T07:09:42.517Z,99.99
2018-09-14T07:10:42.470Z,99.99
2018-09-14T07:11:42.543Z,99.99
2018-09-14T07:12:42.544Z,99.99
2018-09-14T07:13:42.493Z,99.99
2018-09-14T07:14:42.497Z,99.99
2018-09-14T07:15:42.661Z,99.99
2018-09-14T07:16:42.616Z,99.99
2018-09-14T07:17:42.485Z,99.99
2018-09-14T07:18:42.480Z,99.99
2018-09-14T07:19:42.506Z,99.99
2018-09-14T07:20:42.508Z,99.99
2018-09-14T07:21:42.583Z,99.99
2018-09-14T07:22:42.514Z,99.99
2018-09-14T07:23:42.492Z,99.99
2018-09-14T07:24:42.714Z,99.99
2018-09-14T07:25:42.509Z,99.99
2018-09-14T07:26:42.567Z,99.99
2018-09-14T07:27:42.522Z,99.99
2018-09-14T07:28:42.639Z,99.99
2018-09-14T07:29:42.543Z,99.99
2018-09-14T07:30:42.512Z,99.99
2018-09-14T07:37:22.674Z,99.99
2018-09-14T07:38:22.660Z,99.99
2018-09-14T07:39:22.631Z,99.99
2018-09-14T07:40:22.596Z,99.99
2018-09-14T07:41:22.650Z,99.99
2018-09-14T07:42:22.756Z,99.99
2018-09-14T07:43:22.623Z,99.99
2018-09-14T07:44:22.635Z,99.99
2018-09-14T07:45:22.621Z,99.99
2018-09-14T07:46:22.629Z,99.99
2018-09-14T07:47:22.602Z,99.99
2018-09-14T07:48:22.772Z,99.99
2018-09-14T07:49:22.657Z,99.99
2018-09-14T07:50:22.655Z,99.99
2018-09-14T07:51:22.691Z,99.99
2018-09-14T07:52:22.620Z,99.99
2018-09-14T07:53:22.626Z,99.99
2018-09-14T07:54:22.659Z,99.99
2018-09-14T07:55:22.728Z,99.99
2018-09-14T07:56:22.610Z,99.99
2018-09-14T07:57:22.634Z,99.99
2018-09-14T07:58:22.634Z,99.99
2018-09-14T07:59:22.683Z,99.99
2018-09-14T08:00:22.666Z,99.99
2018-09-14T08:01:22.787Z,99.99
2018-09-14T08:02:22.678Z,99.99
2018-09-14T08:03:22.643Z,99.99
2018-09-14T08:04:22.630Z,99.99
2018-09-14T08:05:22.663Z,99.99
2018-09-14T08:06:22.996Z,99.99
2018-09-14T08:07:22.670Z,99.99
2018-09-14T08:08:22.654Z,99.99
2018-09-14T08:09:22.681Z,99.99
2018-09-14T08:10:22.664Z,99.99
2018-09-14T08:11:22.660Z,99.68
2018-09-14T08:12:22.672Z,99.54
2018-09-14T08:13:22.824Z,99.1
2018-09-14T08:14:22.646Z,98.86
2018-09-14T08:15:22.687Z,98.44
2018-09-14T08:16:22.697Z,98.19
2018-09-14T08:17:22.747Z,97.62
2018-09-14T08:18:22.698Z,97.71
2018-09-14T08:19:22.689Z,97.67
2018-09-14T08:20:22.813Z,97.28
2018-09-14T08:21:22.935Z,96.9
2018-09-14T08:22:22.700Z,96.32
2018-09-14T08:23:22.678Z,96.32
2018-09-14T08:24:22.746Z,96.32
2018-09-14T08:25:22.693Z,96.99
2018-09-14T08:26:22.694Z,96.8
2018-09-14T08:27:22.749Z,97.19
2018-09-14T08:28:22.708Z,96.99
2018-09-14T08:29:22.706Z,96.8
2018-09-14T08:36:00.259Z,96.99
2018-09-14T08:37:00.365Z,96.7
2018-09-14T08:38:00.212Z,96.42
2018-09-14T08:39:00.212Z,95.55
2018-09-14T08:40:00.218Z,96.75
2018-09-14T08:41:00.269Z,96.94
2018-09-14T08:42:00.233Z,96.22
2018-09-14T08:43:00.216Z,96.03
2018-09-14T08:44:00.214Z,95.84
2018-09-14T08:45:00.221Z,95.65
2018-09-14T08:46:00.238Z,95.94
2018-09-14T08:47:00.238Z,96.13
2018-09-14T08:48:00.431Z,95.26
2018-09-14T08:49:00.250Z,95.45
2018-09-14T08:50:00.256Z,95.36
2018-09-14T08:51:00.244Z,94.06
2018-09-14T08:52:00.233Z,93.33
2018-09-14T08:53:00.245Z,93.33
2018-09-14T08:54:00.275Z,92.95
2018-09-14T08:55:00.286Z,92.95
2018-09-14T08:56:00.255Z,92.76
2018-09-14T08:57:00.260Z,93.62
2018-09-14T08:58:00.273Z,93.09
2018-09-14T08:59:00.241Z,93.67
2018-09-14T09:00:00.282Z,93.29
2018-09-14T09:01:00.371Z,92.61
2018-09-14T09:02:00.251Z,91.69
2018-09-14T09:03:00.268Z,91.5
2018-09-14T09:04:00.359Z,90.88
2018-09-14T09:05:00.283Z,90.44
2018-09-14T09:06:00.293Z,89.28
2018-09-14T09:07:00.299Z,89.18
2018-09-14T09:08:00.274Z,88.89
2018-09-14T09:09:00.323Z,87.78
2018-09-14T09:10:00.281Z,87.49
2018-09-14T09:11:00.296Z,87.64
2018-09-14T09:12:00.296Z,89.03
2018-09-14T09:13:00.340Z,87.73
2018-09-14T09:14:00.282Z,86.8
2018-09-14T09:15:00.323Z,86.03
2018-09-14T09:16:00.295Z,84.82
2018-09-14T09:17:00.315Z,83.61
2018-09-14T09:18:00.310Z,83.27
2018-09-14T09:19:00.318Z,84.25
2018-09-14T09:20:00.287Z,85.26
2018-09-14T09:21:00.313Z,85.06
2018-09-14T09:22:00.356Z,84.97
2018-09-14T09:23:00.327Z,84.2
2018-09-14T09:24:00.303Z,84.2
2018-09-14T09:25:00.324Z,84.3
2018-09-14T09:26:00.326Z,84.2
2018-09-14T09:27:00.331Z,84.1
2018-09-14T09:28:00.337Z,83.58
2018-09-14T09:29:00.481Z,84.83
2018-09-14T09:30:00.334Z,85.27
2018-09-14T09:31:00.412Z,84.69
2018-09-14T09:32:00.328Z,85.42
2018-09-14T09:33:00.331Z,84.46
2018-09-14T09:34:00.296Z,84.89
2018-09-14T09:35:00.401Z,84.59
2018-09-14T09:36:00.350Z,84.01
2018-09-14T09:37:00.350Z,84.65
2018-09-14T09:38:00.406Z,85.52
2018-09-14T09:39:00.392Z,85.23
2018-09-14T09:40:00.344Z,85.23
2018-09-14T09:41:00.337Z,85.91
2018-09-14T09:42:00.399Z,85.42
2018-09-14T09:43:00.415Z,84.46
2018-09-14T09:44:00.413Z,84.27
2018-09-14T09:45:00.331Z,85.52
2018-09-14T09:46:00.353Z,84.55
2018-09-14T09:47:00.380Z,84.01
2018-09-14T09:48:00.396Z,84.11
2018-09-14T09:49:00.342Z,84.59
2018-09-14T09:50:00.341Z,84.65
2018-09-14T09:51:00.486Z,84.55
2018-09-14T09:52:00.383Z,84.79
2018-09-14T09:53:00.388Z,85.42
2018-09-14T09:54:00.392Z,84.98
2018-09-14T09:55:00.393Z,84.21
2018-09-14T09:56:00.372Z,83.34
2018-09-14T09:57:00.379Z,82.9
2018-09-14T09:58:00.382Z,83.34
2018-09-14T09:59:00.387Z,83
2018-09-14T10:00:00.401Z,82.23
2018-09-14T10:01:00.441Z,81.16
2018-09-14T10:02:00.358Z,82.26
2018-09-14T10:03:00.394Z,81.3
2018-09-14T10:04:00.485Z,80.82
2018-09-14T10:05:00.398Z,80.53
2018-09-14T10:06:00.370Z,81.01
2018-09-14T10:07:00.386Z,81.11
2018-09-14T10:08:00.421Z,81.2
2018-09-14T10:09:00.395Z,82.9
2018-09-14T10:10:00.398Z,83.3
2018-09-14T10:11:00.412Z,83.25
2018-09-14T10:12:00.483Z,83.87
2018-09-14T10:13:00.393Z,83.44
2018-09-14T10:14:00.442Z,83.98
2018-09-14T10:15:00.454Z,84.21
2018-09-14T10:16:00.462Z,84.65
2018-09-14T10:17:00.427Z,84.94
2018-09-14T10:18:00.414Z,84.27
2018-09-14T10:19:00.439Z,84.94
2018-09-14T10:20:00.506Z,84.46
2018-09-14T10:21:00.509Z,84.36
2018-09-14T10:22:00.441Z,84.31
2018-09-14T10:23:00.461Z,83.53
2018-09-14T10:24:00.469Z,83
2018-09-14T10:25:00.406Z,81.49
2018-09-14T10:26:00.718Z,80.86
2018-09-14T10:27:00.612Z,80.66
2018-09-14T10:28:00.450Z,80.47
2018-09-14T10:29:00.612Z,80.28
2018-09-14T10:30:00.437Z,79.99
2018-09-14T10:31:00.432Z,80.38
2018-09-14T10:32:00.583Z,79.6
2018-09-14T10:33:00.455Z,79.02
2018-09-14T10:34:00.648Z,79.6
2018-09-14T10:35:00.520Z,79.31
2018-09-14T10:36:00.579Z,79.99
2018-09-14T10:37:00.612Z,80.08
2018-09-14T10:38:01.123Z,79.99
2018-09-14T10:39:00.442Z,80.86
2018-09-14T10:40:00.487Z,81.3
2018-09-14T10:41:00.466Z,81.88
2018-09-14T10:42:00.458Z,82.03
2018-09-14T10:43:00.510Z,82.42
2018-09-14T10:44:00.544Z,82.23
2018-09-14T10:45:00.490Z,81.99
2018-09-14T10:46:00.820Z,82.76
2018-09-14T10:47:00.471Z,83.11
2018-09-14T10:48:00.538Z,83.15
2018-09-14T10:49:00.505Z,82.86
2018-09-14T10:50:00.560Z,82.18
2018-09-14T10:51:00.494Z,81.8
2018-09-14T10:52:00.494Z,82.48
2018-09-14T10:53:00.463Z,82.57
2018-09-14T10:54:00.518Z,82.32
2018-09-14T10:55:00.599Z,82.67
2018-09-14T10:56:00.487Z,82.82
2018-09-14T10:57:00.492Z,82.57
2018-09-14T10:58:00.538Z,82.92
2018-09-14T10:59:00.601Z,84.11
2018-09-14T11:00:00.450Z,84.94
2018-09-14T11:01:00.553Z,84.52
2018-09-14T11:02:00.702Z,84.46
2018-09-14T11:03:00.493Z,84.01
2018-09-14T11:04:00.485Z,83.25
2018-09-14T11:05:00.477Z,83.25
2018-09-14T11:06:01.036Z,83.05
2018-09-14T11:07:00.625Z,83.15
2018-09-14T11:08:00.494Z,83
2018-09-14T11:09:00.521Z,82.76
2018-09-14T11:10:00.580Z,82.42
2018-09-14T11:11:00.514Z,82.81
2018-09-14T11:12:00.506Z,82.23
2018-09-14T11:13:00.635Z,82.43
2018-09-14T11:14:00.928Z,82.82
2018-09-14T11:15:00.520Z,82.92
2018-09-14T11:16:00.521Z,83.25
2018-09-14T11:17:00.532Z,82.92
2018-09-14T11:18:00.545Z,82.96
2018-09-14T11:19:00.809Z,81.93
2018-09-14T11:20:00.481Z,81.74
2018-09-14T11:21:00.510Z,81.12
2018-09-14T11:22:00.661Z,81.22
2018-09-14T11:23:00.630Z,81.7
2018-09-14T11:24:00.509Z,81.51
2018-09-14T11:25:00.709Z,82.18
2018-09-14T11:26:00.549Z,81.12
2018-09-14T11:27:00.514Z,81.16
2018-09-14T11:28:01.042Z,80.68
2018-09-14T11:29:00.653Z,80.78
2018-09-14T11:30:00.553Z,80.05
2018-09-14T11:31:00.941Z,79.89
2018-09-14T11:32:00.552Z,79.89
2018-09-14T11:33:00.535Z,79.06
2018-09-14T11:34:01.376Z,77.94
2018-09-14T11:35:00.548Z,78.08
2018-09-14T11:36:00.552Z,77.01
2018-09-14T11:37:00.517Z,77.9
2018-09-14T11:38:01.011Z,77.86
2018-09-14T11:39:00.564Z,77.76
2018-09-14T11:40:00.549Z,77.96
2018-09-14T11:41:00.724Z,78.54
2018-09-14T11:42:00.567Z,78.83
2018-09-14T11:43:00.586Z,78.67
2018-09-14T11:44:00.572Z,79.02
2018-09-14T11:45:00.565Z,78.29
2018-09-14T11:46:00.648Z,78
2018-09-14T11:47:00.594Z,77.8
2018-09-14T11:48:00.551Z,76.93
2018-09-14T11:49:00.556Z,77.13
2018-09-14T11:50:17.560Z,77.42
2018-09-14T11:51:17.419Z,77.22
2018-09-14T11:52:17.552Z,77.76
2018-09-14T11:53:17.395Z,78.25
2018-09-14T11:54:17.527Z,77.86
2018-09-14T11:55:17.696Z,77.22
2018-09-14T11:56:17.422Z,77.76
2018-09-14T11:57:17.560Z,77.67
2018-09-14T11:58:17.567Z,78.25
2018-09-14T11:59:17.579Z,78.25
2018-09-14T12:00:17.543Z,78.21
2018-09-14T12:01:17.573Z,78.11
2018-09-14T12:02:17.419Z,78.21
2018-09-14T12:03:17.426Z,78.73
2018-09-14T12:12:06.959Z,77.38
2018-09-14T12:13:06.920Z,77.51
2018-09-14T12:14:07.091Z,78
2018-09-14T12:15:07.075Z,77.9
2018-09-14T12:16:06.944Z,77.13
2018-09-14T12:17:06.918Z,77.32
2018-09-14T12:18:06.956Z,76.87
2018-09-14T12:19:06.907Z,77.38
2018-09-14T12:20:06.950Z,77.03
2018-09-14T12:21:06.935Z,76.29
2018-09-14T12:22:06.993Z,75.75
2018-09-14T12:23:07.023Z,75.75
2018-09-14T12:24:06.934Z,75.79
2018-09-14T12:25:06.973Z,75.79
2018-09-14T12:26:06.942Z,74.18
2018-09-14T12:27:06.952Z,74.28
2018-09-14T12:28:06.936Z,73.6
2018-09-14T12:29:06.948Z,73.79
2018-09-14T12:30:06.975Z,74.28
2018-09-14T12:31:06.957Z,73.79
2018-09-14T12:32:06.994Z,73.95
2018-09-14T12:33:07.103Z,74.34
2018-09-14T12:34:06.958Z,74.73
2018-09-14T12:35:07.077Z,74.24
2018-09-14T12:36:06.953Z,73.73
2018-09-14T12:37:06.949Z,73.54
2018-09-14T12:38:06.986Z,73.02
2018-09-14T12:39:07.007Z,73.02
2018-09-14T12:40:07.080Z,72.77
2018-09-14T12:41:06.944Z,71.99
2018-09-14T12:42:07.136Z,71.8
2018-09-14T12:43:07.130Z,72.28
2018-09-14T12:44:06.974Z,71.83
2018-09-14T12:45:07.044Z,70.99
2018-09-14T12:46:06.980Z,70.9
2018-09-14T12:47:06.991Z,71.12
2018-09-14T12:48:07.060Z,71.25
2018-09-14T12:49:06.962Z,71.09
2018-09-14T12:50:09.223Z,71.03
2018-09-14T12:51:07.104Z,70.45
2018-09-14T12:52:07.061Z,70.87
2018-09-14T12:53:06.996Z,70.03
2018-09-14T12:54:07.072Z,70.35
2018-09-14T12:55:07.143Z,70.7
2018-09-14T12:56:07.202Z,70.64
2018-09-14T12:57:07.818Z,70.8
2018-09-14T12:58:07.131Z,71.28
2018-09-14T12:59:07.005Z,70.7
2018-09-14T13:00:07.062Z,71.06
2018-09-14T13:01:07.024Z,70.92
2018-09-14T13:02:07.009Z,71.86
2018-09-14T13:03:07.144Z,73.02
2018-09-14T13:04:07.144Z,73.11
2018-09-14T13:05:07.093Z,73.37
2018-09-14T13:06:07.134Z,72.79
2018-09-14T13:07:07.091Z,73.14
2018-09-14T13:08:07.059Z,73.08
2018-09-14T13:09:07.020Z,72.73
2018-09-14T13:10:07.063Z,73.24
2018-09-14T13:11:07.348Z,73.57
2018-09-14T13:12:07.063Z,73.24
2018-09-14T13:13:07.083Z,73.08
2018-09-14T13:14:07.066Z,73.66
2018-09-14T13:15:07.281Z,74.11
2018-09-14T13:16:07.067Z,74.11
2018-09-14T13:17:07.154Z,73.91
2018-09-14T13:18:07.028Z,73.53
2018-09-14T13:19:07.071Z,73.75
2018-09-14T13:20:07.106Z,73.31
2018-09-14T13:21:07.093Z,72.83
2018-09-14T13:22:07.042Z,72.53
2018-09-14T13:23:07.091Z,71.8
2018-09-14T13:24:07.303Z,72.09
2018-09-14T13:25:07.040Z,71.76
2018-09-14T13:26:07.084Z,71.6
2018-09-14T13:27:07.085Z,71.5
2018-09-14T13:28:07.173Z,71.22
2018-09-14T13:29:07.085Z,71.12
2018-09-14T13:30:07.057Z,70.73
2018-09-14T13:31:07.199Z,69.7
2018-09-14T13:32:07.041Z,70.63
2018-09-14T13:33:07.086Z,70.63
2018-09-14T13:34:07.061Z,70.63
2018-09-14T13:35:07.062Z,70.92
2018-09-14T13:36:07.212Z,71.47
2018-09-14T13:37:07.108Z,71.37
2018-09-14T13:38:07.072Z,71.76
2018-09-14T13:39:07.105Z,72.15
2018-09-14T13:40:07.598Z,72.15
2018-09-14T13:41:07.265Z,72.6
2018-09-14T13:42:07.110Z,73.24
2018-09-14T13:43:07.136Z,73.14
2018-09-14T13:44:07.083Z,73.14
2018-09-14T13:45:07.127Z,73.33
2018-09-14T13:46:07.125Z,73.24
2018-09-14T13:47:07.128Z,72.98
2018-09-14T13:48:07.256Z,72.98
2018-09-14T13:49:07.091Z,73.59
2018-09-14T13:50:07.263Z,74.21
2018-09-14T13:51:07.124Z,73.91
2018-09-14T13:52:07.109Z,74.17
2018-09-14T13:53:07.160Z,73.63
2018-09-14T13:54:07.105Z,73.33
2018-09-14T13:55:07.097Z,73.04
2018-09-14T13:56:07.118Z,73.04
2018-09-14T13:57:07.159Z,73.59
2018-09-14T13:58:07.130Z,73.39
2018-09-14T13:59:07.116Z,73.3
2018-09-14T14:00:07.118Z,73.53
2018-09-14T14:01:07.143Z,73.72
2018-09-14T14:02:07.113Z,73.91
2018-09-14T14:03:07.112Z,73.37
2018-09-14T14:04:07.125Z,73.37
2018-09-14T14:05:07.146Z,72.89